sensor_id;sensor_type;location;lat;lon;timestamp;temperature;humidity
30063;DHT22;16889;67.864;24.990;2023-06-04T00:03:33;5.20;99.90
30063;DHT22;16889;67.864;24.990;2023-06-04T00:08:19;5.20;99.90
30063;DHT22;16889;67.864;24.990;2023-06-04T00:13:06;5.20;99.90
30063;DHT22;16889;67.864;24.990;2023-06-04T00:17:52;5.30;99.90
30063;DHT22;16889;67.864;24.990;2023-06-04T00:22:38;5.30;99.90
30063;DHT22;16889;67.864;24.990;2023-06-04T00:27:27;5.10;99.90
30063;DHT22;16889;67.864;24.990;2023-06-04T00:32:13;4.90;99.90
30063;DHT22;16889;67.864;24.990;2023-06-04T00:36:59;5.00;99.90
30063;DHT22;16889;67.864;24.990;2023-06-04T00:41:47;5.00;99.90
30063;DHT22;16889;67.864;24.990;2023-06-04T00:46:34;5.10;99.90
30063;DHT22;16889;67.864;24.990;2023-06-04T00:51:22;5.20;99.90
30063;DHT22;16889;67.864;24.990;2023-06-04T00:56:08;5.30;99.90
30063;DHT22;16889;67.864;24.990;2023-06-04T01:00:56;5.20;99.90
30063;DHT22;16889;67.864;24.990;2023-06-04T01:05:57;5.30;99.90
30063;DHT22;16889;67.864;24.990;2023-06-04T01:10:52;5.30;99.90
30063;DHT22;16889;67.864;24.990;2023-06-04T01:15:39;5.30;99.90
30063;DHT22;16889;67.864;24.990;2023-06-04T01:20:40;5.20;99.90
30063;DHT22;16889;67.864;24.990;2023-06-04T01:25:39;5.00;99.90
30063;DHT22;16889;67.864;24.990;2023-06-04T01:30:33;5.00;99.90
30063;DHT22;16889;67.864;24.990;2023-06-04T01:35:21;5.20;99.90
30063;DHT22;16889;67.864;24.990;2023-06-04T01:40:08;5.30;99.90
30063;DHT22;16889;67.864;24.990;2023-06-04T01:44:54;5.30;99.90
30063;DHT22;16889;67.864;24.990;2023-06-04T01:49:40;5.40;99.90
30063;DHT22;16889;67.864;24.990;2023-06-04T01:54:26;5.40;99.90
30063;DHT22;16889;67.864;24.990;2023-06-04T01:59:12;5.40;99.90
30063;DHT22;16889;67.864;24.990;2023-06-04T02:03:58;5.50;99.90
30063;DHT22;16889;67.864;24.990;2023-06-04T02:08:44;5.60;99.90
30063;DHT22;16889;67.864;24.990;2023-06-04T02:13:30;5.70;99.90
30063;DHT22;16889;67.864;24.990;2023-06-04T02:18:18;5.90;99.90
30063;DHT22;16889;67.864;24.990;2023-06-04T02:23:06;6.00;99.90
30063;DHT22;16889;67.864;24.990;2023-06-04T02:27:52;6.20;99.90
30063;DHT22;16889;67.864;24.990;2023-06-04T02:32:38;6.30;99.90
30063;DHT22;16889;67.864;24.990;2023-06-04T02:37:26;6.40;99.90
30063;DHT22;16889;67.864;24.990;2023-06-04T02:42:12;6.50;99.90
30063;DHT22;16889;67.864;24.990;2023-06-04T02:46:58;6.70;99.90
30063;DHT22;16889;67.864;24.990;2023-06-04T02:51:44;6.80;99.90
30063;DHT22;16889;67.864;24.990;2023-06-04T02:56:30;7.00;99.90
30063;DHT22;16889;67.864;24.990;2023-06-04T03:01:20;7.20;99.90
30063;DHT22;16889;67.864;24.990;2023-06-04T03:06:06;7.20;99.90
30063;DHT22;16889;67.864;24.990;2023-06-04T03:10:52;7.40;99.90
30063;DHT22;16889;67.864;24.990;2023-06-04T03:15:38;7.50;99.90
30063;DHT22;16889;67.864;24.990;2023-06-04T03:20:24;7.60;99.90
30063;DHT22;16889;67.864;24.990;2023-06-04T03:25:11;7.70;99.90
30063;DHT22;16889;67.864;24.990;2023-06-04T03:29:57;7.80;99.90
30063;DHT22;16889;67.864;24.990;2023-06-04T03:34:43;7.90;99.90
30063;DHT22;16889;67.864;24.990;2023-06-04T03:39:29;8.00;99.90
30063;DHT22;16889;67.864;24.990;2023-06-04T03:44:19;8.00;99.90
30063;DHT22;16889;67.864;24.990;2023-06-04T03:49:05;7.90;99.90
30063;DHT22;16889;67.864;24.990;2023-06-04T03:53:52;8.00;99.90
30063;DHT22;16889;67.864;24.990;2023-06-04T03:58:37;8.20;99.90
30063;DHT22;16889;67.864;24.990;2023-06-04T04:03:24;8.40;99.90
30063;DHT22;16889;67.864;24.990;2023-06-04T04:08:10;8.50;99.90
30063;DHT22;16889;67.864;24.990;2023-06-04T04:12:56;8.60;99.90
30063;DHT22;16889;67.864;24.990;2023-06-04T04:17:43;8.80;99.90
30063;DHT22;16889;67.864;24.990;2023-06-04T04:22:29;8.90;99.90
30063;DHT22;16889;67.864;24.990;2023-06-04T04:27:15;9.00;99.90
30063;DHT22;16889;67.864;24.990;2023-06-04T04:32:02;9.20;99.90
30063;DHT22;16889;67.864;24.990;2023-06-04T04:36:55;9.20;99.90
30063;DHT22;16889;67.864;24.990;2023-06-04T04:41:42;9.40;99.90
30063;DHT22;16889;67.864;24.990;2023-06-04T04:46:28;9.50;99.90
30063;DHT22;16889;67.864;24.990;2023-06-04T04:51:14;9.70;99.90
30063;DHT22;16889;67.864;24.990;2023-06-04T04:56:00;9.90;99.90
30063;DHT22;16889;67.864;24.990;2023-06-04T05:00:46;9.80;99.90
30063;DHT22;16889;67.864;24.990;2023-06-04T05:05:33;9.80;99.90
30063;DHT22;16889;67.864;24.990;2023-06-04T05:10:19;10.00;99.90
30063;DHT22;16889;67.864;24.990;2023-06-04T05:15:06;10.20;99.90
30063;DHT22;16889;67.864;24.990;2023-06-04T05:19:52;10.40;99.90
30063;DHT22;16889;67.864;24.990;2023-06-04T05:24:38;10.40;99.90
30063;DHT22;16889;67.864;24.990;2023-06-04T05:29:24;10.00;99.90
30063;DHT22;16889;67.864;24.990;2023-06-04T05:34:10;10.10;99.90
30063;DHT22;16889;67.864;24.990;2023-06-04T05:38:58;10.40;99.90
30063;DHT22;16889;67.864;24.990;2023-06-04T05:43:45;10.50;99.90
30063;DHT22;16889;67.864;24.990;2023-06-04T05:48:31;10.60;99.90
30063;DHT22;16889;67.864;24.990;2023-06-04T05:53:17;10.50;99.90
30063;DHT22;16889;67.864;24.990;2023-06-04T05:58:03;10.90;99.90
30063;DHT22;16889;67.864;24.990;2023-06-04T06:02:52;11.30;99.90
30063;DHT22;16889;67.864;24.990;2023-06-04T06:07:38;11.50;99.90
30063;DHT22;16889;67.864;24.990;2023-06-04T06:12:24;11.70;99.90
30063;DHT22;16889;67.864;24.990;2023-06-04T06:17:10;11.60;99.90
30063;DHT22;16889;67.864;24.990;2023-06-04T06:21:56;11.50;99.90
30063;DHT22;16889;67.864;24.990;2023-06-04T06:26:44;11.70;99.90
30063;DHT22;16889;67.864;24.990;2023-06-04T06:31:30;11.90;99.90
30063;DHT22;16889;67.864;24.990;2023-06-04T06:36:16;12.10;99.90
30063;DHT22;16889;67.864;24.990;2023-06-04T06:41:05;12.30;99.90
30063;DHT22;16889;67.864;24.990;2023-06-04T06:45:51;13.40;99.90
30063;DHT22;16889;67.864;24.990;2023-06-04T06:50:37;13.40;99.90
30063;DHT22;16889;67.864;24.990;2023-06-04T06:55:23;13.40;99.90
30063;DHT22;16889;67.864;24.990;2023-06-04T07:00:09;13.40;99.90
30063;DHT22;16889;67.864;24.990;2023-06-04T07:04:55;13.20;99.80
30063;DHT22;16889;67.864;24.990;2023-06-04T07:09:41;12.90;99.80
30063;DHT22;16889;67.864;24.990;2023-06-04T07:14:27;12.80;99.90
30063;DHT22;16889;67.864;24.990;2023-06-04T07:19:13;12.70;99.90
30063;DHT22;16889;67.864;24.990;2023-06-04T07:23:59;13.20;99.90
30063;DHT22;16889;67.864;24.990;2023-06-04T07:28:45;13.50;99.90
30063;DHT22;16889;67.864;24.990;2023-06-04T07:33:31;14.70;96.70
30063;DHT22;16889;67.864;24.990;2023-06-04T07:38:17;14.70;95.50
30063;DHT22;16889;67.864;24.990;2023-06-04T07:43:04;13.10;97.80
30063;DHT22;16889;67.864;24.990;2023-06-04T07:47:50;13.20;97.20
30063;DHT22;16889;67.864;24.990;2023-06-04T07:52:35;12.60;97.50
30063;DHT22;16889;67.864;24.990;2023-06-04T07:57:21;12.40;98.20
30063;DHT22;16889;67.864;24.990;2023-06-04T08:02:07;12.80;96.60
30063;DHT22;16889;67.864;24.990;2023-06-04T08:06:54;13.10;99.90
30063;DHT22;16889;67.864;24.990;2023-06-04T08:11:42;14.00;99.10
30063;DHT22;16889;67.864;24.990;2023-06-04T08:16:31;13.10;99.90
30063;DHT22;16889;67.864;24.990;2023-06-04T08:21:26;13.10;99.90
30063;DHT22;16889;67.864;24.990;2023-06-04T08:26:12;15.60;98.00
30063;DHT22;16889;67.864;24.990;2023-06-04T08:30:58;16.70;93.90
30063;DHT22;16889;67.864;24.990;2023-06-04T08:35:44;16.20;92.60
30063;DHT22;16889;67.864;24.990;2023-06-04T08:40:30;14.90;95.20
30063;DHT22;16889;67.864;24.990;2023-06-04T08:45:20;13.40;99.00
30063;DHT22;16889;67.864;24.990;2023-06-04T08:50:07;12.80;99.90
30063;DHT22;16889;67.864;24.990;2023-06-04T08:54:55;13.20;99.90
30063;DHT22;16889;67.864;24.990;2023-06-04T08:59:42;13.00;99.90
30063;DHT22;16889;67.864;24.990;2023-06-04T09:04:29;12.60;99.90
30063;DHT22;16889;67.864;24.990;2023-06-04T09:09:15;12.40;99.90
30063;DHT22;16889;67.864;24.990;2023-06-04T09:14:07;12.50;99.90
30063;DHT22;16889;67.864;24.990;2023-06-04T09:18:53;12.50;99.90
30063;DHT22;16889;67.864;24.990;2023-06-04T09:28:30;12.30;99.90
30063;DHT22;16889;67.864;24.990;2023-06-04T09:33:17;12.40;99.90
30063;DHT22;16889;67.864;24.990;2023-06-04T09:38:05;12.60;99.90
30063;DHT22;16889;67.864;24.990;2023-06-04T09:42:51;13.40;99.90
30063;DHT22;16889;67.864;24.990;2023-06-04T09:47:44;13.30;99.90
30063;DHT22;16889;67.864;24.990;2023-06-04T09:52:33;13.20;99.90
30063;DHT22;16889;67.864;24.990;2023-06-04T09:57:21;12.50;99.90
30063;DHT22;16889;67.864;24.990;2023-06-04T10:02:09;12.10;99.90
30063;DHT22;16889;67.864;24.990;2023-06-04T10:06:57;12.00;99.90
30063;DHT22;16889;67.864;24.990;2023-06-04T10:11:52;12.00;99.90
30063;DHT22;16889;67.864;24.990;2023-06-04T10:16:40;11.90;99.90
30063;DHT22;16889;67.864;24.990;2023-06-04T10:21:27;11.90;99.90
30063;DHT22;16889;67.864;24.990;2023-06-04T10:26:15;12.30;99.90
30063;DHT22;16889;67.864;24.990;2023-06-04T10:31:01;13.50;99.90
30063;DHT22;16889;67.864;24.990;2023-06-04T10:35:47;14.80;99.90
30063;DHT22;16889;67.864;24.990;2023-06-04T10:40:33;14.30;99.60
30063;DHT22;16889;67.864;24.990;2023-06-04T10:45:29;14.40;99.20
30063;DHT22;16889;67.864;24.990;2023-06-04T10:50:16;15.20;97.40
30063;DHT22;16889;67.864;24.990;2023-06-04T10:55:06;14.10;99.10
30063;DHT22;16889;67.864;24.990;2023-06-04T10:59:56;14.20;99.80
30063;DHT22;16889;67.864;24.990;2023-06-04T11:04:42;14.60;98.70
30063;DHT22;16889;67.864;24.990;2023-06-04T11:09:29;14.20;98.90
30063;DHT22;16889;67.864;24.990;2023-06-04T11:14:16;13.30;99.90
30063;DHT22;16889;67.864;24.990;2023-06-04T11:19:03;13.50;99.40
30063;DHT22;16889;67.864;24.990;2023-06-04T11:23:49;13.40;99.90
30063;DHT22;16889;67.864;24.990;2023-06-04T11:28:41;13.10;99.90
30063;DHT22;16889;67.864;24.990;2023-06-04T11:33:29;13.10;99.90
30063;DHT22;16889;67.864;24.990;2023-06-04T11:38:15;13.50;99.90
30063;DHT22;16889;67.864;24.990;2023-06-04T11:43:02;13.80;99.90
30063;DHT22;16889;67.864;24.990;2023-06-04T11:47:50;12.70;99.90
30063;DHT22;16889;67.864;24.990;2023-06-04T11:52:37;12.00;99.90
30063;DHT22;16889;67.864;24.990;2023-06-04T11:57:23;11.50;99.90
30063;DHT22;16889;67.864;24.990;2023-06-04T12:02:09;11.40;99.90
30063;DHT22;16889;67.864;24.990;2023-06-04T12:07:00;11.60;99.90
30063;DHT22;16889;67.864;24.990;2023-06-04T12:11:46;11.70;99.90
30063;DHT22;16889;67.864;24.990;2023-06-04T12:16:34;12.00;99.90
30063;DHT22;16889;67.864;24.990;2023-06-04T12:21:24;12.70;99.90
30063;DHT22;16889;67.864;24.990;2023-06-04T12:26:25;13.40;99.90
30063;DHT22;16889;67.864;24.990;2023-06-04T12:31:18;13.60;99.90
30063;DHT22;16889;67.864;24.990;2023-06-04T12:36:04;13.10;99.90
30063;DHT22;16889;67.864;24.990;2023-06-04T12:40:51;12.70;99.90
30063;DHT22;16889;67.864;24.990;2023-06-04T12:45:37;12.60;99.90
30063;DHT22;16889;67.864;24.990;2023-06-04T12:50:23;12.60;99.90
30063;DHT22;16889;67.864;24.990;2023-06-04T12:55:09;13.10;99.90
30063;DHT22;16889;67.864;24.990;2023-06-04T12:59:55;13.30;99.90
30063;DHT22;16889;67.864;24.990;2023-06-04T13:04:42;13.90;99.20
30063;DHT22;16889;67.864;24.990;2023-06-04T13:09:31;13.90;97.10
30063;DHT22;16889;67.864;24.990;2023-06-04T13:14:20;14.00;95.90
30063;DHT22;16889;67.864;24.990;2023-06-04T13:19:06;14.10;96.50
30063;DHT22;16889;67.864;24.990;2023-06-04T13:23:53;14.00;95.50
30063;DHT22;16889;67.864;24.990;2023-06-04T13:28:39;13.50;95.80
30063;DHT22;16889;67.864;24.990;2023-06-04T13:33:25;13.20;96.20
30063;DHT22;16889;67.864;24.990;2023-06-04T13:38:11;13.10;97.00
30063;DHT22;16889;67.864;24.990;2023-06-04T13:42:58;13.50;95.80
30063;DHT22;16889;67.864;24.990;2023-06-04T13:47:44;13.40;95.60
30063;DHT22;16889;67.864;24.990;2023-06-04T13:52:30;13.30;95.20
30063;DHT22;16889;67.864;24.990;2023-06-04T13:57:16;13.40;96.30
30063;DHT22;16889;67.864;24.990;2023-06-04T14:02:02;13.30;97.20
30063;DHT22;16889;67.864;24.990;2023-06-04T14:06:49;13.30;96.20
30063;DHT22;16889;67.864;24.990;2023-06-04T14:11:37;12.90;97.50
30063;DHT22;16889;67.864;24.990;2023-06-04T14:16:23;12.50;98.40
30063;DHT22;16889;67.864;24.990;2023-06-04T14:21:09;12.50;97.90
30063;DHT22;16889;67.864;24.990;2023-06-04T14:25:55;12.70;98.70
30063;DHT22;16889;67.864;24.990;2023-06-04T14:30:41;12.70;98.40
30063;DHT22;16889;67.864;24.990;2023-06-04T14:35:27;13.40;96.90
30063;DHT22;16889;67.864;24.990;2023-06-04T14:40:13;14.20;95.00
30063;DHT22;16889;67.864;24.990;2023-06-04T14:44:59;13.80;94.60
30063;DHT22;16889;67.864;24.990;2023-06-04T14:49:45;13.20;96.30
30063;DHT22;16889;67.864;24.990;2023-06-04T14:54:31;12.80;96.70
30063;DHT22;16889;67.864;24.990;2023-06-04T14:59:17;13.00;96.70
30063;DHT22;16889;67.864;24.990;2023-06-04T15:04:03;13.20;95.50
30063;DHT22;16889;67.864;24.990;2023-06-04T15:08:49;13.10;95.60
30063;DHT22;16889;67.864;24.990;2023-06-04T15:13:36;13.00;95.60
30063;DHT22;16889;67.864;24.990;2023-06-04T15:18:22;12.70;97.10
30063;DHT22;16889;67.864;24.990;2023-06-04T15:23:08;12.50;97.20
30063;DHT22;16889;67.864;24.990;2023-06-04T15:27:54;12.20;98.70
30063;DHT22;16889;67.864;24.990;2023-06-04T15:32:40;11.60;99.90
30063;DHT22;16889;67.864;24.990;2023-06-04T15:37:27;11.50;99.90
30063;DHT22;16889;67.864;24.990;2023-06-04T15:42:13;11.50;99.90
30063;DHT22;16889;67.864;24.990;2023-06-04T15:46:59;11.60;99.90
30063;DHT22;16889;67.864;24.990;2023-06-04T15:51:46;11.60;99.90
30063;DHT22;16889;67.864;24.990;2023-06-04T15:56:32;11.70;99.90
30063;DHT22;16889;67.864;24.990;2023-06-04T16:01:18;11.70;99.90
30063;DHT22;16889;67.864;24.990;2023-06-04T16:06:04;11.60;99.70
30063;DHT22;16889;67.864;24.990;2023-06-04T16:10:50;11.40;99.80
30063;DHT22;16889;67.864;24.990;2023-06-04T16:15:36;11.20;99.60
30063;DHT22;16889;67.864;24.990;2023-06-04T16:20:22;11.10;99.30
30063;DHT22;16889;67.864;24.990;2023-06-04T16:25:08;11.30;98.80
30063;DHT22;16889;67.864;24.990;2023-06-04T16:29:55;11.60;99.30
30063;DHT22;16889;67.864;24.990;2023-06-04T16:34:41;11.80;99.00
30063;DHT22;16889;67.864;24.990;2023-06-04T16:39:27;11.90;98.40
30063;DHT22;16889;67.864;24.990;2023-06-04T16:44:13;11.80;98.30
30063;DHT22;16889;67.864;24.990;2023-06-04T16:48:59;11.90;98.10
30063;DHT22;16889;67.864;24.990;2023-06-04T16:53:45;11.90;98.30
30063;DHT22;16889;67.864;24.990;2023-06-04T16:58:31;12.00;99.00
30063;DHT22;16889;67.864;24.990;2023-06-04T17:03:20;12.30;97.80
30063;DHT22;16889;67.864;24.990;2023-06-04T17:08:07;12.40;96.70
30063;DHT22;16889;67.864;24.990;2023-06-04T17:12:53;12.70;96.40
30063;DHT22;16889;67.864;24.990;2023-06-04T17:17:39;13.30;95.20
30063;DHT22;16889;67.864;24.990;2023-06-04T17:22:25;13.50;94.60
30063;DHT22;16889;67.864;24.990;2023-06-04T17:27:11;13.40;93.80
30063;DHT22;16889;67.864;24.990;2023-06-04T17:31:58;12.80;94.60
30063;DHT22;16889;67.864;24.990;2023-06-04T17:36:43;12.50;95.00
30063;DHT22;16889;67.864;24.990;2023-06-04T17:41:30;12.20;95.90
30063;DHT22;16889;67.864;24.990;2023-06-04T17:46:16;12.30;97.40
30063;DHT22;16889;67.864;24.990;2023-06-04T17:51:02;12.30;95.40
30063;DHT22;16889;67.864;24.990;2023-06-04T17:55:51;12.30;94.70
30063;DHT22;16889;67.864;24.990;2023-06-04T18:00:38;12.40;95.00
30063;DHT22;16889;67.864;24.990;2023-06-04T18:05:24;12.10;95.60
30063;DHT22;16889;67.864;24.990;2023-06-04T18:10:11;11.90;95.90
30063;DHT22;16889;67.864;24.990;2023-06-04T18:14:57;12.10;95.70
30063;DHT22;16889;67.864;24.990;2023-06-04T18:19:43;12.20;96.30
30063;DHT22;16889;67.864;24.990;2023-06-04T18:24:29;12.30;96.60
30063;DHT22;16889;67.864;24.990;2023-06-04T18:29:14;12.50;95.70
30063;DHT22;16889;67.864;24.990;2023-06-04T18:34:01;12.40;96.50
30063;DHT22;16889;67.864;24.990;2023-06-04T18:38:47;12.20;97.60
30063;DHT22;16889;67.864;24.990;2023-06-04T18:43:33;12.00;97.40
30063;DHT22;16889;67.864;24.990;2023-06-04T18:48:19;11.90;98.00
30063;DHT22;16889;67.864;24.990;2023-06-04T18:53:06;11.70;99.10
30063;DHT22;16889;67.864;24.990;2023-06-04T18:57:51;11.70;99.50
30063;DHT22;16889;67.864;24.990;2023-06-04T19:02:38;11.80;99.70
30063;DHT22;16889;67.864;24.990;2023-06-04T19:07:24;11.80;99.90
30063;DHT22;16889;67.864;24.990;2023-06-04T19:12:10;11.90;99.90
30063;DHT22;16889;67.864;24.990;2023-06-04T19:17:00;11.90;99.90
30063;DHT22;16889;67.864;24.990;2023-06-04T19:21:47;11.70;99.90
30063;DHT22;16889;67.864;24.990;2023-06-04T19:26:37;11.70;99.90
30063;DHT22;16889;67.864;24.990;2023-06-04T19:31:23;11.60;99.90
30063;DHT22;16889;67.864;24.990;2023-06-04T19:36:13;11.60;99.90
30063;DHT22;16889;67.864;24.990;2023-06-04T19:40:59;11.50;99.90
30063;DHT22;16889;67.864;24.990;2023-06-04T19:45:47;11.40;99.90
30063;DHT22;16889;67.864;24.990;2023-06-04T19:50:35;11.10;99.90
30063;DHT22;16889;67.864;24.990;2023-06-04T19:55:22;10.80;99.90
30063;DHT22;16889;67.864;24.990;2023-06-04T20:00:08;10.60;99.90
30063;DHT22;16889;67.864;24.990;2023-06-04T20:04:55;10.30;99.90
30063;DHT22;16889;67.864;24.990;2023-06-04T20:09:41;10.10;99.90
30063;DHT22;16889;67.864;24.990;2023-06-04T20:14:28;9.90;99.90
30063;DHT22;16889;67.864;24.990;2023-06-04T20:19:14;9.60;99.90
30063;DHT22;16889;67.864;24.990;2023-06-04T20:24:00;9.30;99.90
30063;DHT22;16889;67.864;24.990;2023-06-04T20:28:46;9.10;99.90
30063;DHT22;16889;67.864;24.990;2023-06-04T20:33:32;8.80;99.90
30063;DHT22;16889;67.864;24.990;2023-06-04T20:38:18;8.60;99.90
30063;DHT22;16889;67.864;24.990;2023-06-04T20:43:04;8.20;99.90
30063;DHT22;16889;67.864;24.990;2023-06-04T20:47:51;8.20;99.90
30063;DHT22;16889;67.864;24.990;2023-06-04T20:52:37;8.10;99.90
30063;DHT22;16889;67.864;24.990;2023-06-04T20:57:25;8.10;99.90
30063;DHT22;16889;67.864;24.990;2023-06-04T21:02:11;8.00;99.90
30063;DHT22;16889;67.864;24.990;2023-06-04T21:06:57;7.90;99.90
30063;DHT22;16889;67.864;24.990;2023-06-04T21:11:43;7.90;99.90
30063;DHT22;16889;67.864;24.990;2023-06-04T21:16:29;7.90;99.90
30063;DHT22;16889;67.864;24.990;2023-06-04T21:21:15;8.00;99.90
30063;DHT22;16889;67.864;24.990;2023-06-04T21:26:01;8.10;99.90
30063;DHT22;16889;67.864;24.990;2023-06-04T21:30:47;8.20;99.90
30063;DHT22;16889;67.864;24.990;2023-06-04T21:35:33;8.30;99.90
30063;DHT22;16889;67.864;24.990;2023-06-04T21:40:19;8.30;99.90
30063;DHT22;16889;67.864;24.990;2023-06-04T21:45:06;8.40;99.90
30063;DHT22;16889;67.864;24.990;2023-06-04T21:49:52;8.50;99.90
30063;DHT22;16889;67.864;24.990;2023-06-04T21:54:38;8.50;99.90
30063;DHT22;16889;67.864;24.990;2023-06-04T21:59:24;8.60;99.90
30063;DHT22;16889;67.864;24.990;2023-06-04T22:04:10;8.50;99.90
30063;DHT22;16889;67.864;24.990;2023-06-04T22:08:56;8.50;99.90
30063;DHT22;16889;67.864;24.990;2023-06-04T22:13:42;8.50;99.90
30063;DHT22;16889;67.864;24.990;2023-06-04T22:18:28;8.50;99.90
30063;DHT22;16889;67.864;24.990;2023-06-04T22:23:14;8.50;99.90
30063;DHT22;16889;67.864;24.990;2023-06-04T22:28:00;8.50;99.90
30063;DHT22;16889;67.864;24.990;2023-06-04T22:32:46;8.50;99.90
30063;DHT22;16889;67.864;24.990;2023-06-04T22:37:31;8.50;99.90
30063;DHT22;16889;67.864;24.990;2023-06-04T22:42:17;8.50;99.90
30063;DHT22;16889;67.864;24.990;2023-06-04T22:47:04;8.60;99.90
30063;DHT22;16889;67.864;24.990;2023-06-04T22:51:50;8.60;99.90
30063;DHT22;16889;67.864;24.990;2023-06-04T22:56:36;8.60;99.90
30063;DHT22;16889;67.864;24.990;2023-06-04T23:01:22;8.60;99.90
30063;DHT22;16889;67.864;24.990;2023-06-04T23:06:08;8.60;99.90
30063;DHT22;16889;67.864;24.990;2023-06-04T23:10:54;8.60;99.90
30063;DHT22;16889;67.864;24.990;2023-06-04T23:15:40;8.50;99.90
30063;DHT22;16889;67.864;24.990;2023-06-04T23:20:26;8.50;99.90
30063;DHT22;16889;67.864;24.990;2023-06-04T23:25:12;8.40;99.90
30063;DHT22;16889;67.864;24.990;2023-06-04T23:29:58;8.40;99.90
30063;DHT22;16889;67.864;24.990;2023-06-04T23:34:44;8.20;99.90
30063;DHT22;16889;67.864;24.990;2023-06-04T23:39:29;8.10;99.90
30063;DHT22;16889;67.864;24.990;2023-06-04T23:44:15;8.00;99.90
30063;DHT22;16889;67.864;24.990;2023-06-04T23:49:01;8.00;99.90
30063;DHT22;16889;67.864;24.990;2023-06-04T23:53:47;7.90;99.90
30063;DHT22;16889;67.864;24.990;2023-06-04T23:58:33;7.90;99.90
